createdAt,value
2019-05-18T00:00:10.456Z,16.76
2019-05-18T00:02:39.789Z,16.74
2019-05-18T00:05:09.622Z,16.72
2019-05-18T00:07:39.055Z,16.72
2019-05-18T00:10:08.781Z,16.69
2019-05-18T00:12:38.224Z,16.67
2019-05-18T00:15:08.349Z,16.64
2019-05-18T00:17:37.789Z,16.49
2019-05-18T00:20:08.031Z,16.46
2019-05-18T00:22:37.473Z,16.40
2019-05-18T00:25:07.335Z,16.39
2019-05-18T00:27:36.819Z,16.26
2019-05-18T00:30:09.494Z,16.25
2019-05-18T00:32:38.929Z,16.21
2019-05-18T00:35:08.701Z,16.20
2019-05-18T00:37:38.116Z,16.13
2019-05-18T00:40:07.946Z,16.03
2019-05-18T00:42:37.367Z,15.97
2019-05-18T00:45:07.975Z,15.89
2019-05-18T00:47:41.230Z,15.88
2019-05-18T00:50:08.810Z,15.84
2019-05-18T00:52:38.229Z,15.69
2019-05-18T00:55:10.681Z,15.67
2019-05-18T00:57:40.123Z,15.69
2019-05-18T01:00:10.594Z,15.63
2019-05-18T01:02:40.081Z,15.67
2019-05-18T01:05:09.528Z,15.59
2019-05-18T01:07:39.000Z,15.55
2019-05-18T01:10:08.753Z,15.52
2019-05-18T01:12:38.115Z,15.52
2019-05-18T01:15:08.286Z,15.46
2019-05-18T01:17:37.739Z,15.46
2019-05-18T01:20:08.371Z,15.44
2019-05-18T01:22:37.817Z,15.48
2019-05-18T01:25:07.553Z,15.49
2019-05-18T01:27:36.993Z,15.47
2019-05-18T01:30:08.531Z,15.38
2019-05-18T01:32:37.970Z,15.43
2019-05-18T01:35:07.997Z,15.38
2019-05-18T01:37:37.436Z,15.29
2019-05-18T01:40:07.962Z,15.38
2019-05-18T01:42:37.328Z,15.43
2019-05-18T01:45:16.826Z,15.46
2019-05-18T01:47:41.212Z,15.45
2019-05-18T01:50:10.717Z,15.39
2019-05-18T01:52:40.087Z,15.39
2019-05-18T01:55:09.716Z,15.39
2019-05-18T01:57:39.085Z,15.42
2019-05-18T02:00:10.722Z,15.32
2019-05-18T02:02:40.065Z,15.29
2019-05-18T02:05:09.526Z,15.19
2019-05-18T02:07:38.940Z,15.19
2019-05-18T02:10:08.441Z,15.20
2019-05-18T02:12:37.805Z,15.15
2019-05-18T02:15:07.870Z,15.19
2019-05-18T02:17:37.347Z,15.06
2019-05-18T02:20:07.101Z,15.07
2019-05-18T02:22:36.539Z,15.09
2019-05-18T02:25:08.459Z,15.06
2019-05-18T02:27:37.884Z,14.97
2019-05-18T02:30:08.473Z,14.92
2019-05-18T02:32:37.943Z,14.92
2019-05-18T02:35:07.620Z,14.89
2019-05-18T02:37:37.026Z,14.89
2019-05-18T02:40:07.782Z,14.86
2019-05-18T02:42:37.144Z,14.78
2019-05-18T02:45:09.002Z,14.77
2019-05-18T02:47:38.393Z,14.79
2019-05-18T02:50:09.010Z,14.81
2019-05-18T02:52:38.438Z,14.79
2019-05-18T02:55:08.691Z,14.84
2019-05-18T02:57:38.111Z,14.83
2019-05-18T03:00:09.282Z,14.88
2019-05-18T03:02:38.705Z,14.86
2019-05-18T03:05:08.799Z,14.83
2019-05-18T03:07:38.233Z,14.83
2019-05-18T03:10:08.312Z,14.74
2019-05-18T03:12:37.742Z,14.77
2019-05-18T03:15:07.878Z,14.75
2019-05-18T03:17:37.311Z,14.81
2019-05-18T03:20:06.936Z,14.85
2019-05-18T03:22:36.323Z,14.84
2019-05-18T03:25:07.614Z,14.88
2019-05-18T03:27:37.028Z,14.96
2019-05-18T03:30:07.982Z,15.00
2019-05-18T03:32:37.348Z,15.08
2019-05-18T03:35:06.991Z,15.20
2019-05-18T03:37:36.368Z,15.42
2019-05-18T03:40:07.320Z,15.76
2019-05-18T03:42:37.032Z,16.27
2019-05-18T03:45:06.791Z,16.64
2019-05-18T03:47:36.217Z,16.92
2019-05-18T03:50:09.280Z,17.06
2019-05-18T03:52:38.747Z,17.29
2019-05-18T03:55:08.321Z,17.45
2019-05-18T03:57:37.754Z,17.66
2019-05-18T04:00:10.419Z,17.89
2019-05-18T04:02:39.890Z,17.94
2019-05-18T04:05:09.412Z,17.99
2019-05-18T04:07:39.353Z,17.95
2019-05-18T04:10:09.814Z,17.80
2019-05-18T04:12:39.258Z,17.80
2019-05-18T04:15:10.004Z,17.58
2019-05-18T04:17:39.477Z,17.23
2019-05-18T04:20:09.516Z,17.28
2019-05-18T04:22:38.888Z,17.18
2019-05-18T04:25:08.237Z,17.32
2019-05-18T04:27:37.670Z,17.41
2019-05-18T04:30:10.270Z,17.46
2019-05-18T04:32:39.696Z,17.27
2019-05-18T04:35:10.326Z,17.45
2019-05-18T04:37:39.807Z,17.47
2019-05-18T04:40:09.770Z,17.43
2019-05-18T04:42:39.165Z,17.54
2019-05-18T04:45:08.794Z,17.65
2019-05-18T04:47:38.223Z,17.73
2019-05-18T04:50:08.458Z,18.00
2019-05-18T04:52:37.816Z,18.13
2019-05-18T04:55:07.637Z,18.12
2019-05-18T04:57:37.221Z,18.20
2019-05-18T05:00:09.903Z,18.32
2019-05-18T05:02:39.374Z,18.46
2019-05-18T05:05:08.911Z,18.91
2019-05-18T05:07:38.469Z,18.88
2019-05-18T05:10:08.753Z,19.07
2019-05-18T05:12:40.883Z,19.24
2019-05-18T05:15:10.490Z,19.46
2019-05-18T05:17:44.083Z,19.70
2019-05-18T05:20:19.711Z,19.98
2019-05-18T05:22:51.449Z,20.06
2019-05-18T05:25:20.974Z,20.18
2019-05-18T05:27:50.466Z,20.23
2019-05-18T05:30:19.822Z,20.69
2019-05-18T05:32:52.346Z,20.69
2019-05-18T05:38:29.266Z,20.72
2019-05-18T05:40:51.229Z,20.78
2019-05-18T05:43:23.435Z,20.94
2019-05-18T05:45:54.430Z,21.51
2019-05-18T05:48:24.025Z,21.83
2019-05-18T05:50:53.807Z,21.93
2019-05-18T05:53:23.319Z,21.93
2019-05-18T05:55:55.749Z,22.45
2019-05-18T05:58:26.770Z,22.67
2019-05-18T06:00:56.424Z,22.67
2019-05-18T06:03:28.816Z,22.29
2019-05-18T06:05:58.778Z,22.29
2019-05-18T06:08:28.452Z,22.57
2019-05-18T06:11:06.529Z,22.77
2019-05-18T06:13:36.169Z,22.77
2019-05-18T06:16:05.819Z,22.94
2019-05-18T06:18:35.446Z,22.94
2019-05-18T06:21:08.006Z,23.14
2019-05-18T06:23:37.505Z,23.53
2019-05-18T06:26:07.129Z,23.53
2019-05-18T06:28:36.742Z,23.72
2019-05-18T06:31:09.414Z,24.04
2019-05-18T06:33:39.031Z,24.04
2019-05-18T06:36:11.983Z,24.05
2019-05-18T06:38:41.475Z,24.22
2019-05-18T06:41:12.090Z,24.33
2019-05-18T06:43:41.630Z,24.23
2019-05-18T06:46:10.801Z,24.46
2019-05-18T06:48:40.115Z,24.46
2019-05-18T06:51:09.351Z,24.71
2019-05-18T06:53:38.508Z,24.61
2019-05-18T06:56:07.725Z,24.68
2019-05-18T06:58:37.720Z,24.68
2019-05-18T07:01:07.253Z,24.98
2019-05-18T07:03:36.443Z,25.10
2019-05-18T07:06:05.600Z,25.37
2019-05-18T07:08:34.841Z,25.66
2019-05-18T07:11:04.093Z,25.54
2019-05-18T07:13:33.467Z,25.85
2019-05-18T07:16:02.637Z,26.43
2019-05-18T07:18:31.854Z,26.20
2019-05-18T07:21:00.997Z,26.35
2019-05-18T07:23:30.337Z,26.49
2019-05-18T07:25:59.451Z,26.64
2019-05-18T07:28:28.588Z,26.88
2019-05-18T07:30:57.763Z,27.11
2019-05-18T07:33:26.932Z,26.98
2019-05-18T07:35:56.072Z,27.52
2019-05-18T07:38:25.213Z,27.42
2019-05-18T07:40:54.415Z,27.38
2019-05-18T07:43:23.664Z,27.76
2019-05-18T07:45:54.772Z,27.89
2019-05-18T07:48:24.016Z,27.59
2019-05-18T07:50:53.149Z,27.87
2019-05-18T07:53:22.390Z,27.77
2019-05-18T07:55:51.599Z,28.23
2019-05-18T07:58:20.744Z,29.01
2019-05-18T08:00:49.877Z,28.61
2019-05-18T08:03:19.012Z,28.52
2019-05-18T08:05:48.106Z,28.81
2019-05-18T08:08:17.210Z,29.12
2019-05-18T08:10:46.324Z,29.24
2019-05-18T08:13:15.458Z,29.14
2019-05-18T08:15:44.665Z,29.30
2019-05-18T08:18:13.910Z,29.29
2019-05-18T08:20:43.022Z,29.84
2019-05-18T08:23:12.266Z,30.30
2019-05-18T08:25:41.523Z,30.43
2019-05-18T08:28:10.668Z,30.27
2019-05-18T08:30:39.894Z,30.05
2019-05-18T08:33:09.079Z,30.21
2019-05-18T08:35:38.395Z,30.21
2019-05-18T08:38:07.541Z,29.88
2019-05-18T08:40:36.935Z,29.26
2019-05-18T08:43:06.092Z,29.13
2019-05-18T08:45:35.274Z,29.50
2019-05-18T08:48:04.448Z,29.79
2019-05-18T08:50:33.610Z,29.89
2019-05-18T08:53:02.734Z,29.96
2019-05-18T08:55:31.891Z,29.55
2019-05-18T08:58:01.104Z,29.87
2019-05-18T09:00:30.409Z,30.33
2019-05-18T09:02:59.652Z,30.34
2019-05-18T09:05:28.805Z,30.05
2019-05-18T09:07:57.945Z,30.11
2019-05-18T09:10:27.186Z,30.85
2019-05-18T09:12:56.320Z,31.51
2019-05-18T09:15:25.471Z,31.34
2019-05-18T09:17:54.662Z,31.59
2019-05-18T09:20:23.944Z,31.71
2019-05-18T09:22:53.035Z,31.92
2019-05-18T09:25:22.296Z,31.57
2019-05-18T09:27:51.484Z,32.01
2019-05-18T09:30:20.979Z,32.29
2019-05-18T09:32:50.124Z,32.64
2019-05-18T09:35:19.780Z,32.55
2019-05-18T09:37:49.019Z,32.33
2019-05-18T09:40:18.662Z,31.99
2019-05-18T09:42:47.798Z,32.29
2019-05-18T09:45:17.544Z,32.84
2019-05-18T09:47:46.687Z,32.68
2019-05-18T09:50:16.264Z,31.69
2019-05-18T09:52:46.361Z,31.91
2019-05-18T09:55:18.283Z,32.79
2019-05-18T09:57:47.458Z,32.43
2019-05-18T10:00:18.365Z,32.47
2019-05-18T10:02:47.494Z,32.56
2019-05-18T10:05:16.666Z,32.51
2019-05-18T10:07:45.813Z,32.50
2019-05-18T10:10:15.268Z,33.02
2019-05-18T10:12:44.404Z,33.33
2019-05-18T10:15:13.928Z,33.73
2019-05-18T10:17:43.021Z,33.97
2019-05-18T10:20:12.856Z,34.15
2019-05-18T10:22:55.563Z,34.18
2019-05-18T10:25:13.167Z,33.80
2019-05-18T10:27:42.272Z,33.90
2019-05-18T10:30:11.713Z,34.26
2019-05-18T10:32:42.613Z,33.80
2019-05-18T10:35:12.056Z,33.69
2019-05-18T10:37:41.192Z,33.93
2019-05-18T10:40:11.176Z,34.50
2019-05-18T10:42:40.325Z,34.57
2019-05-18T10:45:11.635Z,34.93
2019-05-18T10:47:42.634Z,34.78
2019-05-18T10:50:11.895Z,34.58
2019-05-18T10:52:41.149Z,34.46
2019-05-18T10:55:10.576Z,34.65
2019-05-18T10:57:39.712Z,34.14
2019-05-18T11:00:12.318Z,34.22
2019-05-18T11:02:41.421Z,34.65
2019-05-18T11:05:10.791Z,34.98
2019-05-18T11:07:39.867Z,34.13
2019-05-18T11:10:10.948Z,34.61
2019-05-18T11:12:40.218Z,35.04
2019-05-18T11:15:10.607Z,34.75
2019-05-18T11:17:39.725Z,34.33
2019-05-18T11:20:12.599Z,34.37
2019-05-18T11:22:43.268Z,34.50
2019-05-18T11:25:12.597Z,34.32
2019-05-18T11:27:41.652Z,34.28
2019-05-18T11:30:12.917Z,34.33
2019-05-18T11:32:42.111Z,34.90
2019-05-18T11:35:11.787Z,34.19
2019-05-18T11:37:41.164Z,34.26
2019-05-18T11:40:12.591Z,34.78
2019-05-18T11:42:41.811Z,34.83
2019-05-18T11:45:13.113Z,34.62
2019-05-18T11:47:44.449Z,33.60
2019-05-18T11:50:17.949Z,34.15
2019-05-18T11:52:47.194Z,34.73
2019-05-18T11:55:17.753Z,34.74
2019-05-18T11:57:46.994Z,35.08
2019-05-18T12:00:17.010Z,34.70
2019-05-18T12:02:46.199Z,33.93
2019-05-18T12:05:15.690Z,33.61
2019-05-18T12:07:44.823Z,33.31
2019-05-18T12:10:18.205Z,32.83
2019-05-18T12:12:46.093Z,33.54
2019-05-18T12:15:15.627Z,33.82
2019-05-18T12:17:44.808Z,33.53
2019-05-18T12:20:14.195Z,33.89
2019-05-18T12:22:43.375Z,33.46
2019-05-18T12:25:13.037Z,33.61
2019-05-18T12:27:42.237Z,33.57
2019-05-18T12:30:13.081Z,34.25
2019-05-18T12:32:42.217Z,34.34
2019-05-18T12:35:12.318Z,34.11
2019-05-18T12:37:41.633Z,34.36
2019-05-18T12:40:11.327Z,34.07
2019-05-18T12:42:40.494Z,34.56
2019-05-18T12:45:10.223Z,34.75
2019-05-18T12:47:39.394Z,35.10
2019-05-18T12:50:10.414Z,34.34
2019-05-18T12:52:39.584Z,33.97
2019-05-18T12:55:08.984Z,33.61
2019-05-18T12:57:38.144Z,34.21
2019-05-18T13:00:15.231Z,34.48
2019-05-18T13:02:44.398Z,34.06
2019-05-18T13:05:13.906Z,34.25
2019-05-18T13:07:43.058Z,33.35
2019-05-18T13:10:13.178Z,32.85
2019-05-18T13:12:42.323Z,34.04
2019-05-18T13:15:12.338Z,33.95
2019-05-18T13:17:41.469Z,34.43
2019-05-18T13:20:12.064Z,34.16
2019-05-18T13:22:41.237Z,33.79
2019-05-18T13:25:11.919Z,33.53
2019-05-18T13:27:41.058Z,33.74
2019-05-18T13:30:13.861Z,33.21
2019-05-18T13:32:43.135Z,33.55
2019-05-18T13:35:13.951Z,33.25
2019-05-18T13:37:43.857Z,33.16
2019-05-18T13:40:14.082Z,33.59
2019-05-18T13:42:43.459Z,33.43
2019-05-18T13:45:13.784Z,32.61
2019-05-18T13:47:43.016Z,33.46
2019-05-18T13:50:13.362Z,33.38
2019-05-18T13:52:42.744Z,32.48
2019-05-18T13:55:12.144Z,32.52
2019-05-18T13:57:41.370Z,32.05
2019-05-18T14:00:10.984Z,32.83
2019-05-18T14:02:40.132Z,33.26
2019-05-18T14:05:09.573Z,33.02
2019-05-18T14:07:39.066Z,32.56
2019-05-18T14:10:12.233Z,32.62
2019-05-18T14:12:42.026Z,32.51
2019-05-18T14:15:11.998Z,31.98
2019-05-18T14:17:41.149Z,32.42
2019-05-18T14:20:11.513Z,31.97
2019-05-18T14:22:40.851Z,31.58
2019-05-18T14:25:19.208Z,32.21
2019-05-18T14:27:42.100Z,32.17
2019-05-18T14:30:11.789Z,31.77
2019-05-18T14:32:40.965Z,31.72
2019-05-18T14:35:10.306Z,30.93
2019-05-18T14:37:39.553Z,31.25
2019-05-18T14:40:09.173Z,31.18
2019-05-18T14:42:38.397Z,31.02
2019-05-18T14:45:08.782Z,30.99
2019-05-18T14:47:40.085Z,30.85
2019-05-18T14:50:09.023Z,30.60
2019-05-18T14:52:38.248Z,30.10
2019-05-18T14:55:10.810Z,29.79
2019-05-18T14:57:40.137Z,29.99
2019-05-18T15:00:10.451Z,30.02
2019-05-18T15:02:39.626Z,30.07
2019-05-18T15:05:10.968Z,30.16
2019-05-18T15:07:40.101Z,29.88
2019-05-18T15:10:09.769Z,30.06
2019-05-18T15:12:39.018Z,30.13
2019-05-18T15:15:09.165Z,30.20
2019-05-18T15:17:38.428Z,29.83
2019-05-18T15:20:09.687Z,30.09
2019-05-18T15:22:39.069Z,30.27
2019-05-18T15:25:08.644Z,29.98
2019-05-18T15:27:37.921Z,30.13
2019-05-18T15:30:10.722Z,29.79
2019-05-18T15:32:40.354Z,30.05
2019-05-18T15:35:13.317Z,30.04
2019-05-18T15:37:43.777Z,29.95
2019-05-18T15:40:13.962Z,29.49
2019-05-18T15:42:43.233Z,29.41
2019-05-18T15:45:12.682Z,29.28
2019-05-18T15:47:41.960Z,29.32
2019-05-18T15:50:11.982Z,29.07
2019-05-18T15:52:41.214Z,28.86
2019-05-18T15:55:10.707Z,28.99
2019-05-18T15:57:40.140Z,28.78
2019-05-18T16:00:11.179Z,28.54
2019-05-18T16:02:40.315Z,28.42
2019-05-18T16:05:09.979Z,28.45
2019-05-18T16:07:39.240Z,28.42
2019-05-18T16:10:08.893Z,28.39
2019-05-18T16:12:38.083Z,28.23
2019-05-18T16:15:08.065Z,28.35
2019-05-18T16:17:39.953Z,28.21
2019-05-18T16:20:09.523Z,28.16
2019-05-18T16:22:38.839Z,27.96
2019-05-18T16:25:08.773Z,28.11
2019-05-18T16:27:38.269Z,28.14
2019-05-18T16:30:09.418Z,27.96
2019-05-18T16:32:38.515Z,27.88
2019-05-18T16:35:11.316Z,27.71
2019-05-18T16:37:40.572Z,27.58
2019-05-18T16:40:10.071Z,27.56
2019-05-18T16:42:39.318Z,27.59
2019-05-18T16:45:09.047Z,27.47
2019-05-18T16:47:38.169Z,27.47
2019-05-18T16:50:08.294Z,27.52
2019-05-18T16:52:37.466Z,27.40
2019-05-18T16:55:08.327Z,27.26
2019-05-18T16:57:37.827Z,27.28
2019-05-18T17:00:15.732Z,27.24
2019-05-18T17:02:42.944Z,27.22
2019-05-18T17:05:12.366Z,27.22
2019-05-18T17:07:41.631Z,27.10
2019-05-18T17:10:11.305Z,27.04
2019-05-18T17:12:40.454Z,26.91
2019-05-18T17:15:10.249Z,26.77
2019-05-18T17:17:43.972Z,26.77
2019-05-18T17:20:13.933Z,26.63
2019-05-18T17:22:43.441Z,26.63
2019-05-18T17:25:13.085Z,26.54
2019-05-18T17:27:42.368Z,26.43
2019-05-18T17:30:12.436Z,26.31
2019-05-18T17:32:42.087Z,26.07
2019-05-18T17:35:12.322Z,26.07
2019-05-18T17:37:43.421Z,26.07
2019-05-18T17:40:12.734Z,25.96
2019-05-18T17:42:42.362Z,25.70
2019-05-18T17:45:11.911Z,25.56
2019-05-18T17:47:41.206Z,25.42
2019-05-18T17:50:11.147Z,25.42
2019-05-18T17:52:40.667Z,25.31
2019-05-18T17:55:10.671Z,25.15
2019-05-18T17:57:40.007Z,25.03
2019-05-18T18:00:11.032Z,24.89
2019-05-18T18:02:40.860Z,24.73
2019-05-18T18:05:10.846Z,24.54
2019-05-18T18:07:40.282Z,24.46
2019-05-18T18:10:10.208Z,24.39
2019-05-18T18:12:39.780Z,24.39
2019-05-18T18:15:10.397Z,24.28
2019-05-18T18:17:39.808Z,24.03
2019-05-18T18:20:10.676Z,23.98
2019-05-18T18:22:40.108Z,23.81
2019-05-18T18:25:09.728Z,23.68
2019-05-18T18:27:39.297Z,23.61
2019-05-18T18:30:11.374Z,23.62
2019-05-18T18:32:41.087Z,23.62
2019-05-18T18:35:11.099Z,23.53
2019-05-18T18:37:40.547Z,23.47
2019-05-18T18:40:10.609Z,23.42
2019-05-18T18:42:40.055Z,23.30
2019-05-18T18:45:10.226Z,23.23
2019-05-18T18:47:39.721Z,23.03
2019-05-18T18:50:09.746Z,22.96
2019-05-18T18:52:39.221Z,22.93
2019-05-18T18:55:09.197Z,22.76
2019-05-18T18:57:41.755Z,22.76
2019-05-18T19:00:10.670Z,22.70
2019-05-18T19:02:40.160Z,22.65
2019-05-18T19:05:09.848Z,22.65
2019-05-18T19:07:39.349Z,22.53
2019-05-18T19:10:09.071Z,22.52
2019-05-18T19:12:38.466Z,22.39
2019-05-18T19:15:10.182Z,22.34
2019-05-18T19:17:39.780Z,22.26
2019-05-18T19:20:12.263Z,22.17
2019-05-18T19:22:41.679Z,22.02
2019-05-18T19:25:11.623Z,21.98
2019-05-18T19:27:53.734Z,21.92
2019-05-18T19:30:19.575Z,21.81
2019-05-18T19:32:49.021Z,21.69
2019-05-18T19:35:18.392Z,21.69
2019-05-18T19:37:48.054Z,21.61
2019-05-18T19:40:17.641Z,21.65
2019-05-18T19:42:47.241Z,21.65
2019-05-18T19:45:16.670Z,21.59
2019-05-18T19:47:46.291Z,21.49
2019-05-18T19:50:15.823Z,21.47
2019-05-18T19:52:45.345Z,21.32
2019-05-18T19:55:14.819Z,21.33
2019-05-18T19:57:44.571Z,21.33
2019-05-18T20:00:15.258Z,21.17
2019-05-18T20:02:44.714Z,21.01
2019-05-18T20:05:14.346Z,20.97
2019-05-18T20:07:43.850Z,20.76
2019-05-18T20:10:13.622Z,20.64
2019-05-18T20:12:43.030Z,20.70
2019-05-18T20:15:13.190Z,20.69
2019-05-18T20:17:42.640Z,20.59
2019-05-18T20:20:12.404Z,20.60
2019-05-18T20:22:41.850Z,20.46
2019-05-18T20:25:11.561Z,20.36
2019-05-18T20:27:41.041Z,20.21
2019-05-18T20:30:10.899Z,20.10
2019-05-18T20:32:40.451Z,20.10
2019-05-18T20:35:10.671Z,20.02
2019-05-18T20:37:40.124Z,19.97
2019-05-18T20:40:10.293Z,19.93
2019-05-18T20:42:39.703Z,19.91
2019-05-18T20:45:09.524Z,19.83
2019-05-18T20:47:38.946Z,19.88
2019-05-18T20:50:08.723Z,19.80
2019-05-18T20:52:38.197Z,19.80
2019-05-18T20:55:07.848Z,19.80
2019-05-18T20:57:37.304Z,19.73
2019-05-18T21:00:08.468Z,19.68
2019-05-18T21:02:38.140Z,19.74
2019-05-18T21:05:08.143Z,19.72
2019-05-18T21:07:37.533Z,19.56
2019-05-18T21:10:10.043Z,19.61
2019-05-18T21:12:39.511Z,19.62
2019-05-18T21:15:09.765Z,19.61
2019-05-18T21:17:39.367Z,19.61
2019-05-18T21:20:09.216Z,19.49
2019-05-18T21:22:38.756Z,19.42
2019-05-18T21:25:08.205Z,19.32
2019-05-18T21:27:37.646Z,19.27
2019-05-18T21:30:07.477Z,19.22
2019-05-18T21:32:36.937Z,19.07
2019-05-18T21:35:08.549Z,19.00
2019-05-18T21:37:38.140Z,18.95
2019-05-18T21:40:09.124Z,19.02
2019-05-18T21:42:41.392Z,19.02
2019-05-18T21:45:11.031Z,19.02
2019-05-18T21:47:40.471Z,19.00
2019-05-18T21:50:10.012Z,18.89
2019-05-18T21:52:41.974Z,18.89
2019-05-18T21:55:11.725Z,18.76
2019-05-18T21:57:41.161Z,18.76
2019-05-18T22:00:11.318Z,18.76
2019-05-18T22:02:40.736Z,18.74
2019-05-18T22:05:10.188Z,18.74
2019-05-18T22:07:39.644Z,18.66
2019-05-18T22:10:24.987Z,18.61
2019-05-18T22:12:44.975Z,18.57
2019-05-18T22:15:14.787Z,18.67
2019-05-18T22:18:01.975Z,18.84
2019-05-18T22:20:32.874Z,18.84
2019-05-18T22:23:02.757Z,18.94
2019-05-18T22:25:32.694Z,18.94
2019-05-18T22:28:02.208Z,18.98
2019-05-18T22:30:31.683Z,19.03
2019-05-18T22:33:01.167Z,19.20
2019-05-18T22:35:30.630Z,19.20
2019-05-18T22:38:00.130Z,19.12
2019-05-18T22:40:29.844Z,19.17
2019-05-18T22:42:59.224Z,19.14
2019-05-18T22:45:28.889Z,19.04
2019-05-18T22:47:58.582Z,19.00
2019-05-18T22:50:28.132Z,19.05
2019-05-18T22:52:58.017Z,19.08
2019-05-18T22:55:29.110Z,19.02
2019-05-18T22:58:00.796Z,18.98
2019-05-18T23:00:30.263Z,18.96
2019-05-18T23:02:59.968Z,18.88
2019-05-18T23:05:31.070Z,18.77
2019-05-18T23:08:03.289Z,18.70
2019-05-18T23:10:34.818Z,18.59
2019-05-18T23:13:04.301Z,18.48
2019-05-18T23:15:34.021Z,18.39
2019-05-18T23:18:03.491Z,18.16
2019-05-18T23:20:35.969Z,18.17
2019-05-18T23:23:05.642Z,18.10
2019-05-18T23:25:35.271Z,18.09
2019-05-18T23:28:04.772Z,17.98
2019-05-18T23:30:34.220Z,17.86
2019-05-18T23:33:03.892Z,17.86
2019-05-18T23:35:34.058Z,17.83
2019-05-18T23:38:03.514Z,17.87
2019-05-18T23:40:33.019Z,17.77
2019-05-18T23:43:02.482Z,17.78
2019-05-18T23:45:31.937Z,17.69
2019-05-18T23:48:01.314Z,17.71
2019-05-18T23:50:30.758Z,17.73
2019-05-18T23:53:00.316Z,17.68
2019-05-18T23:55:29.909Z,17.67
2019-05-18T23:58:05.835Z,17.59
